sensor_id;sensor_type;location;lat;lon;timestamp;P1;durP1;ratioP1;P2;durP2;ratioP2
64936;SDS011;51452;47.698;19.050;2022-08-19T00:01:37;9.23;;;5.70;;
64936;SDS011;51452;47.698;19.050;2022-08-19T00:04:06;7.75;;;5.32;;
64936;SDS011;51452;47.698;19.050;2022-08-19T00:06:33;8.35;;;5.25;;
64936;SDS011;51452;47.698;19.050;2022-08-19T00:09:00;8.95;;;5.03;;
64936;SDS011;51452;47.698;19.050;2022-08-19T00:11:26;7.85;;;4.85;;
64936;SDS011;51452;47.698;19.050;2022-08-19T00:13:53;11.10;;;5.95;;
64936;SDS011;51452;47.698;19.050;2022-08-19T00:16:20;6.53;;;5.15;;
64936;SDS011;51452;47.698;19.050;2022-08-19T00:18:46;8.43;;;5.28;;
64936;SDS011;51452;47.698;19.050;2022-08-19T00:21:12;12.68;;;5.43;;
64936;SDS011;51452;47.698;19.050;2022-08-19T00:23:37;10.45;;;5.60;;
64936;SDS011;51452;47.698;19.050;2022-08-19T00:26:04;6.93;;;5.32;;
64936;SDS011;51452;47.698;19.050;2022-08-19T00:28:30;9.52;;;5.13;;
64936;SDS011;51452;47.698;19.050;2022-08-19T00:30:55;9.13;;;5.68;;
64936;SDS011;51452;47.698;19.050;2022-08-19T00:33:21;7.40;;;5.20;;
64936;SDS011;51452;47.698;19.050;2022-08-19T00:35:46;9.02;;;5.53;;
64936;SDS011;51452;47.698;19.050;2022-08-19T00:38:12;9.10;;;5.30;;
64936;SDS011;51452;47.698;19.050;2022-08-19T00:40:37;7.22;;;5.25;;
64936;SDS011;51452;47.698;19.050;2022-08-19T00:43:07;9.73;;;5.50;;
64936;SDS011;51452;47.698;19.050;2022-08-19T00:45:34;7.45;;;5.78;;
64936;SDS011;51452;47.698;19.050;2022-08-19T00:48:01;8.00;;;5.80;;
64936;SDS011;51452;47.698;19.050;2022-08-19T00:50:29;10.25;;;5.85;;
64936;SDS011;51452;47.698;19.050;2022-08-19T00:52:54;7.00;;;4.95;;
64936;SDS011;51452;47.698;19.050;2022-08-19T00:55:21;7.85;;;5.07;;
64936;SDS011;51452;47.698;19.050;2022-08-19T00:58:00;11.63;;;6.35;;
64936;SDS011;51452;47.698;19.050;2022-08-19T01:00:29;11.82;;;5.80;;
64936;SDS011;51452;47.698;19.050;2022-08-19T01:02:55;8.27;;;5.80;;
64936;SDS011;51452;47.698;19.050;2022-08-19T01:05:25;11.02;;;5.85;;
64936;SDS011;51452;47.698;19.050;2022-08-19T01:07:56;11.52;;;5.80;;
64936;SDS011;51452;47.698;19.050;2022-08-19T01:10:25;13.13;;;5.90;;
64936;SDS011;51452;47.698;19.050;2022-08-19T01:12:52;10.07;;;5.68;;
64936;SDS011;51452;47.698;19.050;2022-08-19T01:15:21;7.78;;;5.75;;
64936;SDS011;51452;47.698;19.050;2022-08-19T01:17:50;8.70;;;5.90;;
64936;SDS011;51452;47.698;19.050;2022-08-19T01:20:21;7.97;;;5.82;;
64936;SDS011;51452;47.698;19.050;2022-08-19T01:25:15;8.15;;;5.72;;
64936;SDS011;51452;47.698;19.050;2022-08-19T01:27:47;6.97;;;5.88;;
64936;SDS011;51452;47.698;19.050;2022-08-19T01:30:17;7.18;;;5.72;;
64936;SDS011;51452;47.698;19.050;2022-08-19T01:32:49;9.88;;;5.90;;
64936;SDS011;51452;47.698;19.050;2022-08-19T01:35:15;11.07;;;5.95;;
64936;SDS011;51452;47.698;19.050;2022-08-19T01:40:23;9.30;;;5.75;;
64936;SDS011;51452;47.698;19.050;2022-08-19T01:42:51;8.95;;;6.00;;
64936;SDS011;51452;47.698;19.050;2022-08-19T01:45:18;8.40;;;6.05;;
64936;SDS011;51452;47.698;19.050;2022-08-19T01:47:44;8.60;;;5.35;;
64936;SDS011;51452;47.698;19.050;2022-08-19T01:50:10;10.38;;;6.18;;
64936;SDS011;51452;47.698;19.050;2022-08-19T01:52:39;9.95;;;5.95;;
64936;SDS011;51452;47.698;19.050;2022-08-19T01:55:07;8.85;;;5.80;;
64936;SDS011;51452;47.698;19.050;2022-08-19T01:57:34;7.90;;;5.75;;
64936;SDS011;51452;47.698;19.050;2022-08-19T02:00:00;9.60;;;5.85;;
64936;SDS011;51452;47.698;19.050;2022-08-19T02:02:29;19.45;;;7.20;;
64936;SDS011;51452;47.698;19.050;2022-08-19T02:04:55;15.30;;;6.20;;
64936;SDS011;51452;47.698;19.050;2022-08-19T02:07:20;11.32;;;6.13;;
64936;SDS011;51452;47.698;19.050;2022-08-19T02:09:48;21.58;;;7.07;;
64936;SDS011;51452;47.698;19.050;2022-08-19T02:12:14;10.63;;;6.38;;
64936;SDS011;51452;47.698;19.050;2022-08-19T02:14:40;8.85;;;6.20;;
64936;SDS011;51452;47.698;19.050;2022-08-19T02:17:05;12.65;;;6.13;;
64936;SDS011;51452;47.698;19.050;2022-08-19T02:19:31;9.85;;;6.45;;
64936;SDS011;51452;47.698;19.050;2022-08-19T02:21:58;9.32;;;6.22;;
64936;SDS011;51452;47.698;19.050;2022-08-19T02:24:24;10.73;;;6.40;;
64936;SDS011;51452;47.698;19.050;2022-08-19T02:26:49;9.98;;;6.22;;
64936;SDS011;51452;47.698;19.050;2022-08-19T02:29:14;9.70;;;6.55;;
64936;SDS011;51452;47.698;19.050;2022-08-19T02:31:40;8.55;;;6.25;;
64936;SDS011;51452;47.698;19.050;2022-08-19T02:34:05;12.88;;;7.40;;
64936;SDS011;51452;47.698;19.050;2022-08-19T02:36:31;7.85;;;5.57;;
64936;SDS011;51452;47.698;19.050;2022-08-19T02:38:56;9.90;;;6.22;;
64936;SDS011;51452;47.698;19.050;2022-08-19T02:41:23;13.30;;;6.70;;
64936;SDS011;51452;47.698;19.050;2022-08-19T02:43:51;12.68;;;6.60;;
64936;SDS011;51452;47.698;19.050;2022-08-19T02:46:27;11.63;;;6.03;;
64936;SDS011;51452;47.698;19.050;2022-08-19T02:48:56;9.88;;;5.88;;
64936;SDS011;51452;47.698;19.050;2022-08-19T02:51:25;11.07;;;6.00;;
64936;SDS011;51452;47.698;19.050;2022-08-19T02:53:53;10.18;;;6.32;;
64936;SDS011;51452;47.698;19.050;2022-08-19T02:56:20;6.97;;;5.82;;
64936;SDS011;51452;47.698;19.050;2022-08-19T02:58:46;11.32;;;6.00;;
64936;SDS011;51452;47.698;19.050;2022-08-19T03:01:19;10.20;;;6.30;;
64936;SDS011;51452;47.698;19.050;2022-08-19T03:03:46;9.88;;;5.80;;
64936;SDS011;51452;47.698;19.050;2022-08-19T03:06:12;7.70;;;5.68;;
64936;SDS011;51452;47.698;19.050;2022-08-19T03:08:41;12.52;;;6.07;;
64936;SDS011;51452;47.698;19.050;2022-08-19T03:11:12;9.57;;;6.85;;
64936;SDS011;51452;47.698;19.050;2022-08-19T03:13:39;9.13;;;6.18;;
64936;SDS011;51452;47.698;19.050;2022-08-19T03:16:05;9.38;;;5.93;;
64936;SDS011;51452;47.698;19.050;2022-08-19T03:18:31;7.75;;;5.85;;
64936;SDS011;51452;47.698;19.050;2022-08-19T03:20:56;7.65;;;5.85;;
64936;SDS011;51452;47.698;19.050;2022-08-19T03:23:22;8.25;;;5.68;;
64936;SDS011;51452;47.698;19.050;2022-08-19T03:25:48;6.65;;;5.78;;
64936;SDS011;51452;47.698;19.050;2022-08-19T03:28:15;7.28;;;5.47;;
64936;SDS011;51452;47.698;19.050;2022-08-19T03:30:42;13.70;;;6.40;;
64936;SDS011;51452;47.698;19.050;2022-08-19T03:33:21;11.50;;;5.53;;
64936;SDS011;51452;47.698;19.050;2022-08-19T03:35:46;10.07;;;5.80;;
64936;SDS011;51452;47.698;19.050;2022-08-19T03:38:12;7.53;;;5.70;;
64936;SDS011;51452;47.698;19.050;2022-08-19T03:40:37;11.05;;;5.65;;
64936;SDS011;51452;47.698;19.050;2022-08-19T03:43:02;9.65;;;5.45;;
64936;SDS011;51452;47.698;19.050;2022-08-19T03:45:28;8.80;;;5.28;;
64936;SDS011;51452;47.698;19.050;2022-08-19T03:47:53;12.02;;;6.53;;
64936;SDS011;51452;47.698;19.050;2022-08-19T03:50:20;14.82;;;6.25;;
64936;SDS011;51452;47.698;19.050;2022-08-19T03:52:51;9.55;;;5.80;;
64936;SDS011;51452;47.698;19.050;2022-08-19T03:55:17;7.18;;;5.63;;
64936;SDS011;51452;47.698;19.050;2022-08-19T03:57:43;8.85;;;5.78;;
64936;SDS011;51452;47.698;19.050;2022-08-19T04:00:10;10.93;;;6.10;;
64936;SDS011;51452;47.698;19.050;2022-08-19T04:02:36;8.70;;;5.28;;
64936;SDS011;51452;47.698;19.050;2022-08-19T04:05:01;7.25;;;5.47;;
64936;SDS011;51452;47.698;19.050;2022-08-19T04:07:26;9.63;;;6.05;;
64936;SDS011;51452;47.698;19.050;2022-08-19T04:09:52;9.07;;;5.50;;
64936;SDS011;51452;47.698;19.050;2022-08-19T04:12:18;8.25;;;5.90;;
64936;SDS011;51452;47.698;19.050;2022-08-19T04:14:45;7.90;;;5.80;;
64936;SDS011;51452;47.698;19.050;2022-08-19T04:17:10;7.45;;;5.53;;
64936;SDS011;51452;47.698;19.050;2022-08-19T04:19:37;9.80;;;5.90;;
64936;SDS011;51452;47.698;19.050;2022-08-19T04:22:03;11.32;;;5.97;;
64936;SDS011;51452;47.698;19.050;2022-08-19T04:24:29;8.68;;;5.38;;
64936;SDS011;51452;47.698;19.050;2022-08-19T04:26:55;8.40;;;5.53;;
64936;SDS011;51452;47.698;19.050;2022-08-19T04:29:22;13.13;;;6.00;;
64936;SDS011;51452;47.698;19.050;2022-08-19T04:31:49;7.22;;;5.38;;
64936;SDS011;51452;47.698;19.050;2022-08-19T04:34:16;7.63;;;5.57;;
64936;SDS011;51452;47.698;19.050;2022-08-19T04:36:47;9.18;;;5.53;;
64936;SDS011;51452;47.698;19.050;2022-08-19T04:39:14;6.85;;;5.30;;
64936;SDS011;51452;47.698;19.050;2022-08-19T04:41:41;9.60;;;5.55;;
64936;SDS011;51452;47.698;19.050;2022-08-19T04:46:51;9.65;;;5.90;;
64936;SDS011;51452;47.698;19.050;2022-08-19T04:49:20;7.68;;;5.20;;
64936;SDS011;51452;47.698;19.050;2022-08-19T04:51:47;8.60;;;4.90;;
64936;SDS011;51452;47.698;19.050;2022-08-19T04:54:14;7.07;;;5.47;;
64936;SDS011;51452;47.698;19.050;2022-08-19T04:56:40;10.52;;;5.70;;
64936;SDS011;51452;47.698;19.050;2022-08-19T04:59:06;9.15;;;5.40;;
64936;SDS011;51452;47.698;19.050;2022-08-19T05:01:33;7.22;;;5.18;;
64936;SDS011;51452;47.698;19.050;2022-08-19T05:04:00;7.60;;;4.68;;
64936;SDS011;51452;47.698;19.050;2022-08-19T05:06:28;7.45;;;5.43;;
64936;SDS011;51452;47.698;19.050;2022-08-19T05:08:54;12.00;;;5.30;;
64936;SDS011;51452;47.698;19.050;2022-08-19T05:11:21;8.30;;;5.10;;
64936;SDS011;51452;47.698;19.050;2022-08-19T05:13:49;11.13;;;5.65;;
64936;SDS011;51452;47.698;19.050;2022-08-19T05:16:15;7.93;;;5.13;;
64936;SDS011;51452;47.698;19.050;2022-08-19T05:18:42;7.13;;;5.20;;
64936;SDS011;51452;47.698;19.050;2022-08-19T05:21:27;8.15;;;5.07;;
64936;SDS011;51452;47.698;19.050;2022-08-19T05:24:23;10.40;;;5.00;;
64936;SDS011;51452;47.698;19.050;2022-08-19T05:26:49;7.03;;;4.65;;
64936;SDS011;51452;47.698;19.050;2022-08-19T05:29:17;8.95;;;5.18;;
64936;SDS011;51452;47.698;19.050;2022-08-19T05:31:44;6.57;;;4.65;;
64936;SDS011;51452;47.698;19.050;2022-08-19T05:34:10;8.27;;;4.97;;
64936;SDS011;51452;47.698;19.050;2022-08-19T05:36:37;7.10;;;5.57;;
64936;SDS011;51452;47.698;19.050;2022-08-19T05:39:07;7.20;;;4.70;;
64936;SDS011;51452;47.698;19.050;2022-08-19T05:41:35;7.90;;;5.07;;
64936;SDS011;51452;47.698;19.050;2022-08-19T05:44:02;6.13;;;4.80;;
64936;SDS011;51452;47.698;19.050;2022-08-19T05:46:31;8.48;;;4.97;;
64936;SDS011;51452;47.698;19.050;2022-08-19T05:48:57;8.00;;;5.00;;
64936;SDS011;51452;47.698;19.050;2022-08-19T05:51:23;7.03;;;5.35;;
64936;SDS011;51452;47.698;19.050;2022-08-19T05:53:49;13.38;;;6.05;;
64936;SDS011;51452;47.698;19.050;2022-08-19T05:56:15;9.05;;;4.57;;
64936;SDS011;51452;47.698;19.050;2022-08-19T05:58:42;6.43;;;4.70;;
64936;SDS011;51452;47.698;19.050;2022-08-19T06:01:11;7.22;;;4.93;;
64936;SDS011;51452;47.698;19.050;2022-08-19T06:03:38;6.57;;;4.22;;
64936;SDS011;51452;47.698;19.050;2022-08-19T06:06:04;10.25;;;5.05;;
64936;SDS011;51452;47.698;19.050;2022-08-19T06:08:31;7.68;;;4.82;;
64936;SDS011;51452;47.698;19.050;2022-08-19T06:10:57;6.63;;;4.60;;
64936;SDS011;51452;47.698;19.050;2022-08-19T06:13:23;6.65;;;4.93;;
64936;SDS011;51452;47.698;19.050;2022-08-19T06:15:49;11.07;;;4.82;;
64936;SDS011;51452;47.698;19.050;2022-08-19T06:18:14;7.68;;;4.80;;
64936;SDS011;51452;47.698;19.050;2022-08-19T06:20:41;6.32;;;4.20;;
64936;SDS011;51452;47.698;19.050;2022-08-19T06:23:07;7.22;;;4.70;;
64936;SDS011;51452;47.698;19.050;2022-08-19T06:25:33;6.93;;;4.57;;
64936;SDS011;51452;47.698;19.050;2022-08-19T06:27:59;7.75;;;5.10;;
64936;SDS011;51452;47.698;19.050;2022-08-19T06:30:24;9.00;;;4.63;;
64936;SDS011;51452;47.698;19.050;2022-08-19T06:32:50;5.63;;;4.22;;
64936;SDS011;51452;47.698;19.050;2022-08-19T06:35:15;8.98;;;5.00;;
64936;SDS011;51452;47.698;19.050;2022-08-19T06:37:41;10.57;;;4.75;;
64936;SDS011;51452;47.698;19.050;2022-08-19T06:40:07;6.43;;;4.70;;
64936;SDS011;51452;47.698;19.050;2022-08-19T06:42:34;8.82;;;4.43;;
64936;SDS011;51452;47.698;19.050;2022-08-19T06:44:59;12.60;;;4.80;;
64936;SDS011;51452;47.698;19.050;2022-08-19T06:47:29;7.30;;;4.55;;
64936;SDS011;51452;47.698;19.050;2022-08-19T06:49:57;5.20;;;4.30;;
64936;SDS011;51452;47.698;19.050;2022-08-19T06:52:32;5.70;;;4.30;;
64936;SDS011;51452;47.698;19.050;2022-08-19T06:54:59;7.30;;;4.28;;
64936;SDS011;51452;47.698;19.050;2022-08-19T06:57:25;7.22;;;4.68;;
64936;SDS011;51452;47.698;19.050;2022-08-19T06:59:51;8.40;;;4.35;;
64936;SDS011;51452;47.698;19.050;2022-08-19T07:02:18;5.60;;;4.78;;
64936;SDS011;51452;47.698;19.050;2022-08-19T07:04:44;8.15;;;4.38;;
64936;SDS011;51452;47.698;19.050;2022-08-19T07:07:10;7.15;;;4.70;;
64936;SDS011;51452;47.698;19.050;2022-08-19T07:09:39;8.50;;;4.68;;
64936;SDS011;51452;47.698;19.050;2022-08-19T07:12:07;5.53;;;4.40;;
64936;SDS011;51452;47.698;19.050;2022-08-19T07:14:36;6.32;;;4.43;;
64936;SDS011;51452;47.698;19.050;2022-08-19T07:17:03;6.30;;;4.45;;
64936;SDS011;51452;47.698;19.050;2022-08-19T07:19:31;14.05;;;5.13;;
64936;SDS011;51452;47.698;19.050;2022-08-19T07:21:57;10.45;;;4.70;;
64936;SDS011;51452;47.698;19.050;2022-08-19T07:24:26;7.60;;;4.68;;
64936;SDS011;51452;47.698;19.050;2022-08-19T07:26:53;8.30;;;4.50;;
64936;SDS011;51452;47.698;19.050;2022-08-19T07:29:21;5.40;;;4.65;;
64936;SDS011;51452;47.698;19.050;2022-08-19T07:31:48;9.75;;;4.70;;
64936;SDS011;51452;47.698;19.050;2022-08-19T07:34:15;14.27;;;4.80;;
64936;SDS011;51452;47.698;19.050;2022-08-19T07:36:41;6.57;;;4.40;;
64936;SDS011;51452;47.698;19.050;2022-08-19T07:39:09;6.57;;;4.40;;
64936;SDS011;51452;47.698;19.050;2022-08-19T07:41:40;10.43;;;4.72;;
64936;SDS011;51452;47.698;19.050;2022-08-19T07:44:06;8.73;;;4.72;;
64936;SDS011;51452;47.698;19.050;2022-08-19T07:46:34;7.97;;;4.22;;
64936;SDS011;51452;47.698;19.050;2022-08-19T07:49:00;6.43;;;4.40;;
64936;SDS011;51452;47.698;19.050;2022-08-19T07:51:26;11.50;;;4.60;;
64936;SDS011;51452;47.698;19.050;2022-08-19T07:53:52;9.45;;;4.72;;
64936;SDS011;51452;47.698;19.050;2022-08-19T07:56:18;9.45;;;4.50;;
64936;SDS011;51452;47.698;19.050;2022-08-19T07:58:45;7.75;;;5.03;;
64936;SDS011;51452;47.698;19.050;2022-08-19T08:01:13;8.35;;;4.32;;
64936;SDS011;51452;47.698;19.050;2022-08-19T08:03:42;10.35;;;4.85;;
64936;SDS011;51452;47.698;19.050;2022-08-19T08:06:26;5.22;;;4.53;;
64936;SDS011;51452;47.698;19.050;2022-08-19T08:09:10;10.45;;;5.40;;
64936;SDS011;51452;47.698;19.050;2022-08-19T08:11:45;12.05;;;4.68;;
64936;SDS011;51452;47.698;19.050;2022-08-19T08:14:36;8.70;;;4.80;;
64936;SDS011;51452;47.698;19.050;2022-08-19T08:17:04;10.05;;;4.55;;
64936;SDS011;51452;47.698;19.050;2022-08-19T08:19:31;7.53;;;4.20;;
64936;SDS011;51452;47.698;19.050;2022-08-19T08:21:58;8.18;;;4.60;;
64936;SDS011;51452;47.698;19.050;2022-08-19T08:24:25;8.90;;;4.20;;
64936;SDS011;51452;47.698;19.050;2022-08-19T08:26:52;7.55;;;4.15;;
64936;SDS011;51452;47.698;19.050;2022-08-19T08:29:17;7.65;;;4.22;;
64936;SDS011;51452;47.698;19.050;2022-08-19T08:31:44;9.25;;;4.90;;
64936;SDS011;51452;47.698;19.050;2022-08-19T08:34:10;5.60;;;4.43;;
64936;SDS011;51452;47.698;19.050;2022-08-19T08:36:37;7.07;;;4.78;;
64936;SDS011;51452;47.698;19.050;2022-08-19T08:39:08;6.80;;;4.35;;
64936;SDS011;51452;47.698;19.050;2022-08-19T08:41:35;5.50;;;4.10;;
64936;SDS011;51452;47.698;19.050;2022-08-19T08:44:13;5.15;;;4.05;;
64936;SDS011;51452;47.698;19.050;2022-08-19T08:49:17;7.43;;;4.50;;
64936;SDS011;51452;47.698;19.050;2022-08-19T08:51:52;8.43;;;4.30;;
64936;SDS011;51452;47.698;19.050;2022-08-19T08:54:42;7.07;;;4.30;;
64936;SDS011;51452;47.698;19.050;2022-08-19T08:57:13;10.95;;;4.70;;
64936;SDS011;51452;47.698;19.050;2022-08-19T08:59:43;7.60;;;4.40;;
64936;SDS011;51452;47.698;19.050;2022-08-19T09:02:15;11.85;;;4.20;;
64936;SDS011;51452;47.698;19.050;2022-08-19T09:04:41;5.13;;;3.70;;
64936;SDS011;51452;47.698;19.050;2022-08-19T09:09:52;9.60;;;4.82;;
64936;SDS011;51452;47.698;19.050;2022-08-19T09:12:40;7.50;;;4.10;;
64936;SDS011;51452;47.698;19.050;2022-08-19T09:15:09;6.40;;;3.88;;
64936;SDS011;51452;47.698;19.050;2022-08-19T09:17:38;6.70;;;3.78;;
64936;SDS011;51452;47.698;19.050;2022-08-19T09:22:33;8.98;;;3.75;;
64936;SDS011;51452;47.698;19.050;2022-08-19T09:25:00;7.88;;;3.85;;
64936;SDS011;51452;47.698;19.050;2022-08-19T09:27:27;5.95;;;3.85;;
64936;SDS011;51452;47.698;19.050;2022-08-19T09:29:53;5.93;;;4.13;;
64936;SDS011;51452;47.698;19.050;2022-08-19T09:32:18;6.50;;;3.92;;
64936;SDS011;51452;47.698;19.050;2022-08-19T09:34:45;7.70;;;3.75;;
64936;SDS011;51452;47.698;19.050;2022-08-19T09:37:11;6.65;;;4.00;;
64936;SDS011;51452;47.698;19.050;2022-08-19T09:39:37;11.40;;;4.00;;
64936;SDS011;51452;47.698;19.050;2022-08-19T09:42:04;5.00;;;3.90;;
64936;SDS011;51452;47.698;19.050;2022-08-19T09:44:30;7.47;;;3.92;;
64936;SDS011;51452;47.698;19.050;2022-08-19T09:46:55;5.22;;;3.50;;
64936;SDS011;51452;47.698;19.050;2022-08-19T09:49:21;8.85;;;4.30;;
64936;SDS011;51452;47.698;19.050;2022-08-19T09:51:49;10.57;;;3.70;;
64936;SDS011;51452;47.698;19.050;2022-08-19T09:54:16;11.35;;;3.70;;
64936;SDS011;51452;47.698;19.050;2022-08-19T09:56:42;5.35;;;3.75;;
64936;SDS011;51452;47.698;19.050;2022-08-19T09:59:08;6.53;;;3.80;;
64936;SDS011;51452;47.698;19.050;2022-08-19T10:01:35;23.75;;;6.80;;
64936;SDS011;51452;47.698;19.050;2022-08-19T10:04:00;5.32;;;3.75;;
64936;SDS011;51452;47.698;19.050;2022-08-19T10:06:28;5.50;;;3.70;;
64936;SDS011;51452;47.698;19.050;2022-08-19T10:08:58;5.70;;;3.47;;
64936;SDS011;51452;47.698;19.050;2022-08-19T10:11:24;9.18;;;3.67;;
64936;SDS011;51452;47.698;19.050;2022-08-19T10:13:49;4.53;;;3.30;;
64936;SDS011;51452;47.698;19.050;2022-08-19T10:16:16;6.20;;;3.55;;
64936;SDS011;51452;47.698;19.050;2022-08-19T10:18:44;5.93;;;3.55;;
64936;SDS011;51452;47.698;19.050;2022-08-19T10:21:20;8.40;;;3.78;;
64936;SDS011;51452;47.698;19.050;2022-08-19T10:23:50;4.60;;;3.50;;
64936;SDS011;51452;47.698;19.050;2022-08-19T10:26:19;4.93;;;3.47;;
64936;SDS011;51452;47.698;19.050;2022-08-19T10:28:49;5.50;;;4.03;;
64936;SDS011;51452;47.698;19.050;2022-08-19T10:31:16;9.40;;;4.50;;
64936;SDS011;51452;47.698;19.050;2022-08-19T10:33:46;14.32;;;4.30;;
64936;SDS011;51452;47.698;19.050;2022-08-19T10:36:19;4.53;;;3.45;;
64936;SDS011;51452;47.698;19.050;2022-08-19T10:38:48;6.32;;;3.80;;
64936;SDS011;51452;47.698;19.050;2022-08-19T10:41:20;9.20;;;3.63;;
64936;SDS011;51452;47.698;19.050;2022-08-19T10:43:50;8.40;;;3.80;;
64936;SDS011;51452;47.698;19.050;2022-08-19T10:46:17;8.40;;;4.00;;
64936;SDS011;51452;47.698;19.050;2022-08-19T10:48:43;6.43;;;4.00;;
64936;SDS011;51452;47.698;19.050;2022-08-19T10:51:09;8.27;;;3.90;;
64936;SDS011;51452;47.698;19.050;2022-08-19T10:53:53;8.55;;;4.10;;
64936;SDS011;51452;47.698;19.050;2022-08-19T10:56:20;5.75;;;3.42;;
64936;SDS011;51452;47.698;19.050;2022-08-19T10:59:05;8.35;;;3.63;;
64936;SDS011;51452;47.698;19.050;2022-08-19T11:01:31;9.75;;;3.50;;
64936;SDS011;51452;47.698;19.050;2022-08-19T11:03:58;8.25;;;4.18;;
64936;SDS011;51452;47.698;19.050;2022-08-19T11:06:25;8.48;;;4.40;;
64936;SDS011;51452;47.698;19.050;2022-08-19T11:08:51;9.15;;;4.10;;
64936;SDS011;51452;47.698;19.050;2022-08-19T11:11:17;7.00;;;3.30;;
64936;SDS011;51452;47.698;19.050;2022-08-19T11:13:43;7.68;;;3.65;;
64936;SDS011;51452;47.698;19.050;2022-08-19T11:16:15;7.32;;;3.50;;
64936;SDS011;51452;47.698;19.050;2022-08-19T11:18:46;5.80;;;3.83;;
64936;SDS011;51452;47.698;19.050;2022-08-19T11:21:15;7.60;;;3.33;;
64936;SDS011;51452;47.698;19.050;2022-08-19T11:23:46;11.25;;;3.83;;
64936;SDS011;51452;47.698;19.050;2022-08-19T11:26:13;10.32;;;3.65;;
64936;SDS011;51452;47.698;19.050;2022-08-19T11:28:39;12.20;;;3.80;;
64936;SDS011;51452;47.698;19.050;2022-08-19T11:31:13;7.00;;;3.53;;
64936;SDS011;51452;47.698;19.050;2022-08-19T11:33:41;8.93;;;3.55;;
64936;SDS011;51452;47.698;19.050;2022-08-19T11:36:07;5.10;;;3.58;;
64936;SDS011;51452;47.698;19.050;2022-08-19T11:38:33;7.35;;;3.70;;
64936;SDS011;51452;47.698;19.050;2022-08-19T11:41:01;8.05;;;3.85;;
64936;SDS011;51452;47.698;19.050;2022-08-19T11:43:28;4.40;;;3.30;;
64936;SDS011;51452;47.698;19.050;2022-08-19T11:45:54;6.03;;;3.15;;
64936;SDS011;51452;47.698;19.050;2022-08-19T11:48:21;20.65;;;4.20;;
64936;SDS011;51452;47.698;19.050;2022-08-19T11:50:50;13.77;;;4.43;;
64936;SDS011;51452;47.698;19.050;2022-08-19T11:53:19;15.13;;;3.30;;
64936;SDS011;51452;47.698;19.050;2022-08-19T11:55:45;8.27;;;3.40;;
64936;SDS011;51452;47.698;19.050;2022-08-19T11:58:13;10.82;;;3.30;;
64936;SDS011;51452;47.698;19.050;2022-08-19T12:00:41;8.32;;;3.65;;
64936;SDS011;51452;47.698;19.050;2022-08-19T12:03:06;8.38;;;3.20;;
64936;SDS011;51452;47.698;19.050;2022-08-19T12:05:33;10.48;;;3.38;;
64936;SDS011;51452;47.698;19.050;2022-08-19T12:07:58;8.85;;;3.45;;
64936;SDS011;51452;47.698;19.050;2022-08-19T12:10:24;9.68;;;3.65;;
64936;SDS011;51452;47.698;19.050;2022-08-19T12:12:49;8.75;;;3.50;;
64936;SDS011;51452;47.698;19.050;2022-08-19T12:15:15;11.68;;;4.10;;
64936;SDS011;51452;47.698;19.050;2022-08-19T12:17:41;5.50;;;3.42;;
64936;SDS011;51452;47.698;19.050;2022-08-19T12:20:08;11.38;;;3.70;;
64936;SDS011;51452;47.698;19.050;2022-08-19T12:22:38;10.77;;;4.32;;
64936;SDS011;51452;47.698;19.050;2022-08-19T12:25:06;14.40;;;4.30;;
64936;SDS011;51452;47.698;19.050;2022-08-19T12:27:32;10.48;;;4.20;;
64936;SDS011;51452;47.698;19.050;2022-08-19T12:29:57;13.20;;;4.47;;
64936;SDS011;51452;47.698;19.050;2022-08-19T12:32:26;9.63;;;3.70;;
64936;SDS011;51452;47.698;19.050;2022-08-19T12:34:51;9.27;;;3.63;;
64936;SDS011;51452;47.698;19.050;2022-08-19T12:37:17;5.80;;;3.63;;
64936;SDS011;51452;47.698;19.050;2022-08-19T12:39:43;11.23;;;4.25;;
64936;SDS011;51452;47.698;19.050;2022-08-19T12:42:09;6.35;;;3.25;;
64936;SDS011;51452;47.698;19.050;2022-08-19T12:44:37;8.60;;;3.42;;
64936;SDS011;51452;47.698;19.050;2022-08-19T12:47:04;6.93;;;3.80;;
64936;SDS011;51452;47.698;19.050;2022-08-19T12:49:30;7.80;;;3.33;;
64936;SDS011;51452;47.698;19.050;2022-08-19T12:51:58;8.02;;;3.35;;
64936;SDS011;51452;47.698;19.050;2022-08-19T12:54:25;8.80;;;3.58;;
64936;SDS011;51452;47.698;19.050;2022-08-19T12:56:51;7.35;;;3.72;;
64936;SDS011;51452;47.698;19.050;2022-08-19T12:59:16;13.02;;;4.15;;
64936;SDS011;51452;47.698;19.050;2022-08-19T13:01:43;6.82;;;3.60;;
64936;SDS011;51452;47.698;19.050;2022-08-19T13:04:09;10.32;;;4.22;;
64936;SDS011;51452;47.698;19.050;2022-08-19T13:06:35;10.32;;;3.97;;
64936;SDS011;51452;47.698;19.050;2022-08-19T13:09:01;9.60;;;4.25;;
64936;SDS011;51452;47.698;19.050;2022-08-19T13:11:27;7.63;;;4.25;;
64936;SDS011;51452;47.698;19.050;2022-08-19T13:13:57;7.82;;;4.00;;
64936;SDS011;51452;47.698;19.050;2022-08-19T13:16:22;18.38;;;4.70;;
64936;SDS011;51452;47.698;19.050;2022-08-19T13:18:48;7.43;;;4.05;;
64936;SDS011;51452;47.698;19.050;2022-08-19T13:21:17;12.20;;;4.10;;
64936;SDS011;51452;47.698;19.050;2022-08-19T13:23:44;7.22;;;3.42;;
64936;SDS011;51452;47.698;19.050;2022-08-19T13:26:10;10.00;;;4.57;;
64936;SDS011;51452;47.698;19.050;2022-08-19T13:28:37;9.73;;;4.10;;
64936;SDS011;51452;47.698;19.050;2022-08-19T13:31:23;6.30;;;3.75;;
64936;SDS011;51452;47.698;19.050;2022-08-19T13:34:09;11.13;;;4.15;;
64936;SDS011;51452;47.698;19.050;2022-08-19T13:36:35;9.55;;;3.58;;
64936;SDS011;51452;47.698;19.050;2022-08-19T13:39:02;6.82;;;3.88;;
64936;SDS011;51452;47.698;19.050;2022-08-19T13:41:28;10.38;;;3.75;;
64936;SDS011;51452;47.698;19.050;2022-08-19T13:43:53;10.23;;;5.13;;
64936;SDS011;51452;47.698;19.050;2022-08-19T13:46:19;11.73;;;5.80;;
64936;SDS011;51452;47.698;19.050;2022-08-19T13:48:45;16.02;;;6.18;;
64936;SDS011;51452;47.698;19.050;2022-08-19T13:51:10;9.30;;;5.85;;
64936;SDS011;51452;47.698;19.050;2022-08-19T13:53:36;9.73;;;6.65;;
64936;SDS011;51452;47.698;19.050;2022-08-19T13:56:06;11.40;;;7.07;;
64936;SDS011;51452;47.698;19.050;2022-08-19T13:58:32;12.90;;;6.32;;
64936;SDS011;51452;47.698;19.050;2022-08-19T14:00:58;23.73;;;7.00;;
64936;SDS011;51452;47.698;19.050;2022-08-19T14:03:24;15.40;;;7.22;;
64936;SDS011;51452;47.698;19.050;2022-08-19T14:05:50;13.43;;;7.60;;
64936;SDS011;51452;47.698;19.050;2022-08-19T14:08:16;22.85;;;7.22;;
64936;SDS011;51452;47.698;19.050;2022-08-19T14:10:42;21.77;;;4.95;;
64936;SDS011;51452;47.698;19.050;2022-08-19T14:13:09;11.60;;;3.90;;
64936;SDS011;51452;47.698;19.050;2022-08-19T14:15:35;16.63;;;4.65;;
64936;SDS011;51452;47.698;19.050;2022-08-19T14:18:02;15.75;;;4.25;;
64936;SDS011;51452;47.698;19.050;2022-08-19T14:20:28;12.38;;;3.83;;
64936;SDS011;51452;47.698;19.050;2022-08-19T14:22:53;12.52;;;3.75;;
64936;SDS011;51452;47.698;19.050;2022-08-19T14:25:24;20.58;;;3.78;;
64936;SDS011;51452;47.698;19.050;2022-08-19T14:27:51;20.70;;;3.60;;
64936;SDS011;51452;47.698;19.050;2022-08-19T14:30:24;10.57;;;3.50;;
64936;SDS011;51452;47.698;19.050;2022-08-19T14:32:52;9.20;;;2.63;;
64936;SDS011;51452;47.698;19.050;2022-08-19T14:35:23;11.80;;;4.13;;
64936;SDS011;51452;47.698;19.050;2022-08-19T14:37:49;16.67;;;3.15;;
64936;SDS011;51452;47.698;19.050;2022-08-19T14:40:18;14.20;;;3.17;;
64936;SDS011;51452;47.698;19.050;2022-08-19T14:42:47;11.23;;;3.22;;
64936;SDS011;51452;47.698;19.050;2022-08-19T14:45:13;13.30;;;3.28;;
64936;SDS011;51452;47.698;19.050;2022-08-19T14:47:39;11.95;;;3.10;;
64936;SDS011;51452;47.698;19.050;2022-08-19T14:50:07;8.07;;;2.85;;